Time;durP1;ratioP1;P1;durP2;ratioP2;P2;SDS_P1;SDS_P2;PMS_P1;PMS_P2;Temp;Humidity;BMP_temperature;BMP_pressure;BME280_temperature;BME280_humidity;BME280_pressure;Samples;Min_cycle;Max_cycle;Signal;HPM_P1;HPM_P2
2022/11/09 00:02:12;;;;;;;7.55;1.58;;;;;;;;;;6220048;23;20484;-72
2022/11/09 00:04:38;;;;;;;12.60;2.03;;;;;;;;;;6219701;23;20115;-72
2022/11/09 00:07:04;;;;;;;8.88;1.55;;;;;;;;;;6219897;23;20035;-72
2022/11/09 00:09:30;;;;;;;9.52;1.90;;;;;;;;;;6219703;23;20402;-72
2022/11/09 00:11:56;;;;;;;9.38;1.88;;;;;;;;;;6219734;23;20377;-73
2022/11/09 00:14:22;;;;;;;11.68;1.85;;;;;;;;;;6219916;23;20026;-72
2022/11/09 00:16:48;;;;;;;8.77;1.63;;;;;;;;;;6219670;23;20071;-72
2022/11/09 00:19:14;;;;;;;12.27;2.88;;;;;;;;;;6219690;23;20020;-72
2022/11/09 00:21:40;;;;;;;8.23;1.70;;;;;;;;;;6219728;23;20016;-72
2022/11/09 00:24:06;;;;;;;12.93;2.35;;;;;;;;;;6219770;23;20028;-73
2022/11/09 00:26:33;;;;;;;8.18;2.28;;;;;;;;;;6219718;23;20347;-72
2022/11/09 00:28:59;;;;;;;7.88;2.45;;;;;;;;;;6219693;23;20036;-72
2022/11/09 00:31:25;;;;;;;6.70;1.50;;;;;;;;;;6219303;23;20087;-73
2022/11/09 00:33:52;;;;;;;4.00;1.38;;;;;;;;;;6219580;23;20077;-73
2022/11/09 00:36:19;;;;;;;7.45;1.58;;;;;;;;;;6219490;23;20358;-72
2022/11/09 00:38:48;;;;;;;11.25;2.42;;;;;;;;;;6246509;23;20449;-72
2022/11/09 00:41:14;;;;;;;7.85;1.83;;;;;;;;;;6219478;23;20516;-72
2022/11/09 00:43:40;;;;;;;7.57;1.73;;;;;;;;;;6219526;23;20301;-72
2022/11/09 00:46:07;;;;;;;5.68;1.60;;;;;;;;;;6219301;23;20066;-72
2022/11/09 00:48:33;;;;;;;8.57;2.15;;;;;;;;;;6219366;23;20386;-72
2022/11/09 00:50:59;;;;;;;8.48;1.80;;;;;;;;;;6219399;23;20048;-72
2022/11/09 00:53:26;;;;;;;11.38;2.05;;;;;;;;;;6219607;23;20012;-72
2022/11/09 00:55:53;;;;;;;5.95;1.80;;;;;;;;;;6219264;23;20024;-72
2022/11/09 00:58:19;;;;;;;10.30;2.10;;;;;;;;;;6219218;23;20019;-72
2022/11/09 01:00:45;;;;;;;9.13;1.80;;;;;;;;;;6219132;23;20016;-72
2022/11/09 01:03:11;;;;;;;5.50;1.80;;;;;;;;;;6218951;23;20794;-72
2022/11/09 01:05:38;;;;;;;7.47;2.00;;;;;;;;;;6194299;23;20015;-72
2022/11/09 01:08:04;;;;;;;8.90;2.20;;;;;;;;;;6219339;23;20044;-72
2022/11/09 01:10:30;;;;;;;9.52;2.40;;;;;;;;;;6219200;23;20023;-72
2022/11/09 01:12:57;;;;;;;6.85;2.55;;;;;;;;;;6190767;23;20448;-72
2022/11/09 01:15:23;;;;;;;8.15;2.88;;;;;;;;;;6184051;23;20143;-72
2022/11/09 01:17:49;;;;;;;10.43;3.30;;;;;;;;;;6184004;23;20063;-72
2022/11/09 01:20:16;;;;;;;7.22;3.10;;;;;;;;;;6184190;23;20020;-72
2022/11/09 01:22:42;;;;;;;13.95;3.30;;;;;;;;;;6184077;23;20017;-72
2022/11/09 01:25:08;;;;;;;6.00;2.97;;;;;;;;;;6184131;23;20021;-72
2022/11/09 01:27:34;;;;;;;11.45;3.13;;;;;;;;;;6184075;23;20088;-73
2022/11/09 01:30:00;;;;;;;6.82;2.60;;;;;;;;;;6184146;23;20020;-72
2022/11/09 01:32:26;;;;;;;8.45;2.60;;;;;;;;;;6184056;23;20017;-72
2022/11/09 01:34:52;;;;;;;9.88;2.83;;;;;;;;;;6184093;23;20020;-73
2022/11/09 01:37:19;;;;;;;14.15;2.72;;;;;;;;;;6184378;23;20024;-73
2022/11/09 01:39:45;;;;;;;7.68;2.78;;;;;;;;;;6184154;23;20087;-73
2022/11/09 01:42:11;;;;;;;6.00;2.50;;;;;;;;;;6183974;23;20024;-73
2022/11/09 01:44:37;;;;;;;8.48;3.03;;;;;;;;;;6159411;23;20510;-73
2022/11/09 01:47:06;;;;;;;6.88;2.47;;;;;;;;;;6184145;23;20013;-72
2022/11/09 01:49:39;;;;;;;15.50;3.00;;;;;;;;;;6183905;23;20017;-72
2022/11/09 01:52:26;;;;;;;11.27;3.60;;;;;;;;;;6183850;23;20335;-72
2022/11/09 01:55:04;;;;;;;8.25;2.35;;;;;;;;;;6159186;23;20021;-72
2022/11/09 01:57:36;;;;;;;9.93;2.80;;;;;;;;;;6183872;23;20017;-72
2022/11/09 02:00:06;;;;;;;10.53;3.60;;;;;;;;;;6184030;23;20017;-72
2022/11/09 02:02:32;;;;;;;8.20;2.72;;;;;;;;;;6183778;23;20057;-72
2022/11/09 02:05:03;;;;;;;8.35;2.45;;;;;;;;;;6183931;23;20021;-72
2022/11/09 02:07:29;;;;;;;15.55;4.15;;;;;;;;;;6184158;23;20012;-73
2022/11/09 02:10:00;;;;;;;11.75;3.65;;;;;;;;;;6160996;23;20012;-72
2022/11/09 02:12:28;;;;;;;11.15;3.10;;;;;;;;;;6207601;23;20020;-72
2022/11/09 02:14:54;;;;;;;16.27;3.53;;;;;;;;;;6221162;23;20355;-72
2022/11/09 02:17:20;;;;;;;13.57;3.15;;;;;;;;;;6221305;23;20028;-72
2022/11/09 02:19:46;;;;;;;12.27;3.17;;;;;;;;;;6221588;23;20016;-73
2022/11/09 02:22:12;;;;;;;11.10;3.55;;;;;;;;;;6220561;23;20482;-73
2022/11/09 02:24:39;;;;;;;13.40;3.22;;;;;;;;;;6220791;23;20020;-72
2022/11/09 02:27:05;;;;;;;10.32;3.72;;;;;;;;;;6195855;23;20016;-72
2022/11/09 02:29:33;;;;;;;10.02;3.50;;;;;;;;;;6220758;23;20199;-72
2022/11/09 02:32:14;;;;;;;13.30;4.03;;;;;;;;;;6220789;23;20008;-72
2022/11/09 02:34:40;;;;;;;8.88;3.03;;;;;;;;;;6220928;23;20020;-72
2022/11/09 02:37:06;;;;;;;8.95;3.50;;;;;;;;;;6220766;23;20026;-72
2022/11/09 02:39:32;;;;;;;11.35;3.05;;;;;;;;;;6195849;23;20319;-72
2022/11/09 02:42:09;;;;;;;10.82;3.22;;;;;;;;;;6220646;23;20031;-72
2022/11/09 02:44:39;;;;;;;10.90;3.72;;;;;;;;;;6220659;23;20435;-72
2022/11/09 02:47:05;;;;;;;12.23;2.92;;;;;;;;;;6220911;23;20015;-73
2022/11/09 02:49:31;;;;;;;13.52;3.50;;;;;;;;;;6220532;23;20047;-72
2022/11/09 02:51:57;;;;;;;14.93;3.25;;;;;;;;;;6220510;23;20012;-72
2022/11/09 02:54:23;;;;;;;13.13;3.20;;;;;;;;;;6220746;23;20066;-72
2022/11/09 02:56:49;;;;;;;14.63;2.97;;;;;;;;;;6220480;23;20016;-72
2022/11/09 02:59:15;;;;;;;9.18;2.83;;;;;;;;;;6220594;23;20012;-72
2022/11/09 03:01:41;;;;;;;17.52;3.25;;;;;;;;;;6220577;23;20020;-71
2022/11/09 03:04:07;;;;;;;11.68;2.80;;;;;;;;;;6220370;23;20130;-72
2022/11/09 03:06:33;;;;;;;17.63;3.10;;;;;;;;;;6195702;23;20043;-72
2022/11/09 03:09:08;;;;;;;13.15;4.00;;;;;;;;;;6220299;23;20031;-73
2022/11/09 03:11:35;;;;;;;12.32;2.42;;;;;;;;;;6209168;23;20021;-73
2022/11/09 03:14:01;;;;;;;8.45;2.40;;;;;;;;;;6185391;23;20017;-73
2022/11/09 03:16:27;;;;;;;20.50;2.83;;;;;;;;;;6185262;23;20064;-72
2022/11/09 03:18:53;;;;;;;12.77;2.50;;;;;;;;;;6184461;23;20088;-72
2022/11/09 03:21:21;;;;;;;11.23;2.90;;;;;;;;;;6185195;23;20024;-72
2022/11/09 03:23:47;;;;;;;12.90;2.60;;;;;;;;;;6185006;23;20348;-72
2022/11/09 03:26:13;;;;;;;12.18;3.28;;;;;;;;;;6185362;23;20020;-72
2022/11/09 03:28:40;;;;;;;18.35;2.80;;;;;;;;;;6185197;23;20092;-73
2022/11/09 03:31:06;;;;;;;14.55;3.03;;;;;;;;;;6185402;23;20013;-73
2022/11/09 03:33:32;;;;;;;13.68;3.15;;;;;;;;;;6185210;23;20013;-72
2022/11/09 03:35:58;;;;;;;11.95;2.55;;;;;;;;;;6185382;23;20025;-72
2022/11/09 03:38:24;;;;;;;19.63;3.65;;;;;;;;;;6160518;23;20027;-72
2022/11/09 03:40:50;;;;;;;18.20;2.80;;;;;;;;;;6185258;23;20021;-72
2022/11/09 03:43:16;;;;;;;11.82;3.20;;;;;;;;;;6185083;23;20466;-72
2022/11/09 03:45:42;;;;;;;13.45;2.50;;;;;;;;;;6185006;23;20009;-72
2022/11/09 03:48:08;;;;;;;10.48;2.40;;;;;;;;;;6184794;23;20020;-72
2022/11/09 03:50:39;;;;;;;16.25;2.55;;;;;;;;;;6184843;23;20464;-72
2022/11/09 03:53:05;;;;;;;13.55;2.55;;;;;;;;;;6184912;23;20020;-72
2022/11/09 03:55:31;;;;;;;13.27;2.72;;;;;;;;;;6185044;23;20367;-72
2022/11/09 03:57:57;;;;;;;18.45;4.00;;;;;;;;;;6184621;23;20349;-72
2022/11/09 04:00:23;;;;;;;16.45;2.58;;;;;;;;;;6184664;23;20351;-72
2022/11/09 04:02:49;;;;;;;13.13;2.55;;;;;;;;;;6184639;23;20013;-72
2022/11/09 04:05:16;;;;;;;18.80;2.60;;;;;;;;;;6184884;23;20084;-72
2022/11/09 04:07:55;;;;;;;16.55;2.50;;;;;;;;;;6184530;23;20040;-72
2022/11/09 04:10:22;;;;;;;10.70;2.17;;;;;;;;;;6184810;23;20384;-72
2022/11/09 04:12:48;;;;;;;12.60;2.42;;;;;;;;;;6184583;23;20079;-72
2022/11/09 04:15:14;;;;;;;13.18;2.42;;;;;;;;;;6159834;23;20020;-72
2022/11/09 04:17:41;;;;;;;15.18;2.80;;;;;;;;;;6184666;23;20013;-72
2022/11/09 04:20:07;;;;;;;19.75;3.65;;;;;;;;;;6184609;23;20013;-72
2022/11/09 04:22:34;;;;;;;18.88;2.67;;;;;;;;;;6184622;23;20020;-72
2022/11/09 04:25:00;;;;;;;18.25;2.55;;;;;;;;;;6184572;23;20013;-72
2022/11/09 04:27:26;;;;;;;17.88;4.05;;;;;;;;;;6184717;23;20440;-72
2022/11/09 04:29:52;;;;;;;12.70;2.60;;;;;;;;;;6184440;23;20095;-72
2022/11/09 04:32:18;;;;;;;17.05;2.83;;;;;;;;;;6184519;23;20100;-73
2022/11/09 04:34:44;;;;;;;13.68;3.17;;;;;;;;;;6184515;23;20024;-73
2022/11/09 04:37:10;;;;;;;17.58;2.50;;;;;;;;;;6184654;23;20032;-72
2022/11/09 04:39:36;;;;;;;15.10;2.65;;;;;;;;;;6184608;23;20020;-72
2022/11/09 04:42:02;;;;;;;8.57;2.15;;;;;;;;;;6184420;23;20088;-72
2022/11/09 04:44:28;;;;;;;18.33;2.97;;;;;;;;;;6184330;23;20021;-72
2022/11/09 04:46:54;;;;;;;15.82;2.47;;;;;;;;;;6159622;23;20017;-72
2022/11/09 04:49:21;;;;;;;14.75;2.50;;;;;;;;;;6184383;23;20017;-72
2022/11/09 04:51:47;;;;;;;15.40;2.63;;;;;;;;;;6159514;23;20091;-72
2022/11/09 04:54:13;;;;;;;13.48;3.10;;;;;;;;;;6159232;23;20470;-72
2022/11/09 04:56:39;;;;;;;11.90;2.60;;;;;;;;;;6184148;23;20024;-71
2022/11/09 04:59:05;;;;;;;16.15;2.63;;;;;;;;;;6159820;23;20017;-72
2022/11/09 05:01:31;;;;;;;17.92;3.25;;;;;;;;;;6184208;23;20093;-72
2022/11/09 05:03:57;;;;;;;13.23;3.00;;;;;;;;;;6184075;23;20085;-73
2022/11/09 05:06:32;;;;;;;17.52;3.28;;;;;;;;;;6183247;23;20015;-72
2022/11/09 05:08:59;;;;;;;17.60;2.67;;;;;;;;;;6182545;23;20021;-72
2022/11/09 05:11:26;;;;;;;14.90;3.20;;;;;;;;;;6192358;23;20067;-72
2022/11/09 05:13:52;;;;;;;16.88;2.65;;;;;;;;;;6218186;23;20027;-72
2022/11/09 05:16:18;;;;;;;15.52;2.92;;;;;;;;;;6218873;23;20019;-72
2022/11/09 05:18:44;;;;;;;19.90;3.05;;;;;;;;;;6219285;23;20016;-72
2022/11/09 05:21:11;;;;;;;18.77;3.80;;;;;;;;;;6219664;23;20016;-72
2022/11/09 05:26:21;;;;;;;16.90;2.90;;;;;;;;;;6219148;23;20035;-72
2022/11/09 05:28:48;;;;;;;13.85;2.80;;;;;;;;;;6219301;23;20016;-72
2022/11/09 05:31:14;;;;;;;15.75;2.88;;;;;;;;;;6219202;23;20019;-72
2022/11/09 05:33:40;;;;;;;13.80;3.72;;;;;;;;;;6219162;23;20054;-72
2022/11/09 05:36:06;;;;;;;11.93;2.42;;;;;;;;;;6219213;23;20023;-72
2022/11/09 05:38:32;;;;;;;11.60;2.40;;;;;;;;;;6219157;23;20020;-72
2022/11/09 05:40:58;;;;;;;12.25;2.88;;;;;;;;;;6219072;23;20022;-72
2022/11/09 05:43:24;;;;;;;10.95;2.60;;;;;;;;;;6218659;23;20074;-72
2022/11/09 05:45:50;;;;;;;15.30;3.40;;;;;;;;;;6219244;23;20023;-73
2022/11/09 05:48:17;;;;;;;11.23;2.55;;;;;;;;;;6218886;23;20043;-72
2022/11/09 05:50:44;;;;;;;11.63;3.00;;;;;;;;;;6218939;23;20012;-72
2022/11/09 05:53:11;;;;;;;18.05;2.70;;;;;;;;;;6219083;23;20023;-72
2022/11/09 05:55:37;;;;;;;12.57;2.58;;;;;;;;;;6218977;23;20087;-72
2022/11/09 05:58:03;;;;;;;14.80;4.00;;;;;;;;;;6219051;23;20047;-72
2022/11/09 06:00:29;;;;;;;15.77;2.72;;;;;;;;;;6218886;23;20043;-72
2022/11/09 06:03:01;;;;;;;10.55;2.75;;;;;;;;;;6219043;23;20018;-72
2022/11/09 06:05:27;;;;;;;16.80;3.28;;;;;;;;;;6245749;23;20020;-72
2022/11/09 06:07:53;;;;;;;19.23;3.17;;;;;;;;;;6219025;22;20017;-72
2022/11/09 06:10:20;;;;;;;13.63;2.80;;;;;;;;;;6218870;23;20012;-72
2022/11/09 06:12:49;;;;;;;11.82;3.05;;;;;;;;;;6218935;23;20021;-72
2022/11/09 06:15:16;;;;;;;14.15;3.47;;;;;;;;;;6218604;23;20046;-72
2022/11/09 06:17:42;;;;;;;15.15;3.70;;;;;;;;;;6218963;23;20514;-72
2022/11/09 06:20:08;;;;;;;18.65;3.70;;;;;;;;;;6218919;23;20516;-72
2022/11/09 06:22:34;;;;;;;10.25;2.80;;;;;;;;;;6218906;23;20008;-72
2022/11/09 06:25:00;;;;;;;15.80;3.75;;;;;;;;;;6218631;23;20027;-72
2022/11/09 06:27:26;;;;;;;17.08;2.85;;;;;;;;;;6218848;23;20134;-72
2022/11/09 06:29:52;;;;;;;15.95;3.95;;;;;;;;;;6219060;23;20016;-72
2022/11/09 06:32:18;;;;;;;14.75;3.20;;;;;;;;;;6219247;23;20020;-72
2022/11/09 06:34:47;;;;;;;13.40;2.47;;;;;;;;;;6193834;23;20070;-72
2022/11/09 06:37:15;;;;;;;13.25;2.33;;;;;;;;;;6218548;23;20027;-72
2022/11/09 06:39:41;;;;;;;14.82;2.65;;;;;;;;;;6218994;23;20024;-72
2022/11/09 06:42:08;;;;;;;12.30;2.42;;;;;;;;;;6218684;23;20020;-72
2022/11/09 06:44:34;;;;;;;14.45;3.22;;;;;;;;;;6218811;23;20142;-72
2022/11/09 06:47:00;;;;;;;13.30;3.00;;;;;;;;;;6218820;23;20031;-72
2022/11/09 06:49:26;;;;;;;10.57;2.80;;;;;;;;;;6218955;23;20012;-72
2022/11/09 06:51:52;;;;;;;10.25;2.50;;;;;;;;;;6218707;23;20012;-72
2022/11/09 06:54:18;;;;;;;11.35;2.80;;;;;;;;;;6219774;23;20115;-72
2022/11/09 06:56:44;;;;;;;19.13;2.35;;;;;;;;;;6220539;23;20016;-71
2022/11/09 06:59:10;;;;;;;10.00;2.38;;;;;;;;;;6220341;23;20016;-72
2022/11/09 07:01:36;;;;;;;11.30;3.15;;;;;;;;;;6220613;23;20113;-72
2022/11/09 07:04:02;;;;;;;13.55;2.53;;;;;;;;;;6220317;23;20016;-71
2022/11/09 07:06:28;;;;;;;11.45;2.30;;;;;;;;;;6220438;23;20062;-73
2022/11/09 07:08:56;;;;;;;10.85;2.50;;;;;;;;;;6220802;23;20021;-72
2022/11/09 07:11:22;;;;;;;9.68;2.30;;;;;;;;;;6220374;23;20020;-72
2022/11/09 07:13:48;;;;;;;14.05;2.75;;;;;;;;;;6220177;23;20024;-72
2022/11/09 07:16:18;;;;;;;10.23;2.60;;;;;;;;;;6220417;23;20012;-72
2022/11/09 07:18:44;;;;;;;14.13;2.75;;;;;;;;;;6195842;23;20012;-72
2022/11/09 07:21:11;;;;;;;11.68;2.60;;;;;;;;;;6220571;23;20163;-72
2022/11/09 07:23:37;;;;;;;14.07;2.83;;;;;;;;;;6220197;23;20017;-72
2022/11/09 07:26:03;;;;;;;6.47;2.55;;;;;;;;;;6220143;23;20012;-72
2022/11/09 07:28:29;;;;;;;17.75;2.53;;;;;;;;;;6220321;23;20014;-72
2022/11/09 07:30:57;;;;;;;16.73;3.30;;;;;;;;;;6220279;23;20016;-72
2022/11/09 07:33:23;;;;;;;12.40;2.63;;;;;;;;;;6220038;23;20012;-72
2022/11/09 07:35:50;;;;;;;13.82;3.20;;;;;;;;;;6220417;23;20439;-72
2022/11/09 07:38:18;;;;;;;13.60;2.92;;;;;;;;;;6220309;23;20035;-71
2022/11/09 07:40:44;;;;;;;12.60;3.53;;;;;;;;;;6220174;23;20019;-71
2022/11/09 07:43:11;;;;;;;11.45;2.47;;;;;;;;;;6219851;23;20016;-71
2022/11/09 07:45:37;;;;;;;11.85;2.75;;;;;;;;;;6220128;23;20016;-71
2022/11/09 07:48:05;;;;;;;12.63;3.67;;;;;;;;;;6220265;23;20016;-72
2022/11/09 07:50:31;;;;;;;15.18;3.92;;;;;;;;;;6220175;23;20039;-73
2022/11/09 07:52:58;;;;;;;14.25;3.13;;;;;;;;;;6220025;23;20012;-72
2022/11/09 07:55:25;;;;;;;21.67;3.45;;;;;;;;;;6220129;23;20389;-74
2022/11/09 07:57:58;;;;;;;13.85;2.38;;;;;;;;;;6219974;23;20013;-72
2022/11/09 08:00:24;;;;;;;10.00;2.78;;;;;;;;;;6219967;23;20063;-72
2022/11/09 08:02:51;;;;;;;12.00;2.17;;;;;;;;;;6219774;23;20008;-72
2022/11/09 08:05:17;;;;;;;12.48;3.30;;;;;;;;;;6219599;23;20012;-72
2022/11/09 08:07:43;;;;;;;18.88;3.17;;;;;;;;;;6219882;22;20091;-72
2022/11/09 08:10:09;;;;;;;16.23;2.58;;;;;;;;;;6219842;23;20435;-72
2022/11/09 08:12:35;;;;;;;12.00;2.78;;;;;;;;;;6219592;23;20020;-72
2022/11/09 08:15:01;;;;;;;12.55;2.70;;;;;;;;;;6219641;23;20028;-72
2022/11/09 08:17:27;;;;;;;18.40;2.65;;;;;;;;;;6219572;23;20018;-72
2022/11/09 08:19:53;;;;;;;14.00;2.95;;;;;;;;;;6219477;23;20023;-72
2022/11/09 08:22:19;;;;;;;15.27;3.00;;;;;;;;;;6219750;23;20462;-72
2022/11/09 08:24:45;;;;;;;17.40;2.85;;;;;;;;;;6219492;23;20016;-71
2022/11/09 08:27:11;;;;;;;16.38;2.53;;;;;;;;;;6219621;23;20020;-71
2022/11/09 08:29:37;;;;;;;14.18;2.75;;;;;;;;;;6219753;23;20323;-71
2022/11/09 08:32:04;;;;;;;20.95;3.85;;;;;;;;;;6219617;23;20431;-71
2022/11/09 08:34:30;;;;;;;23.83;3.88;;;;;;;;;;6219605;23;20023;-71
2022/11/09 08:36:59;;;;;;;9.82;2.70;;;;;;;;;;6219517;23;20096;-71
2022/11/09 08:39:25;;;;;;;17.42;2.47;;;;;;;;;;6219726;23;20023;-71
2022/11/09 08:41:51;;;;;;;9.73;3.13;;;;;;;;;;6194699;23;20020;-72
2022/11/09 08:44:17;;;;;;;15.57;2.60;;;;;;;;;;6219473;23;20021;-71
2022/11/09 08:46:43;;;;;;;15.05;2.75;;;;;;;;;;6219552;23;20341;-71
2022/11/09 08:49:09;;;;;;;13.02;2.80;;;;;;;;;;6219451;23;20020;-72
2022/11/09 08:51:35;;;;;;;8.80;2.17;;;;;;;;;;6219412;23;20054;-72
2022/11/09 08:54:01;;;;;;;10.93;2.80;;;;;;;;;;6219408;23;20070;-72
2022/11/09 08:56:27;;;;;;;12.25;2.50;;;;;;;;;;6219413;23;20454;-71
2022/11/09 08:58:53;;;;;;;12.68;2.67;;;;;;;;;;6218810;23;20373;-71
2022/11/09 09:01:20;;;;;;;17.70;3.10;;;;;;;;;;6218397;23;20020;-71
2022/11/09 09:03:46;;;;;;;14.93;2.40;;;;;;;;;;6245887;23;20013;-74
2022/11/09 09:06:12;;;;;;;11.73;3.00;;;;;;;;;;6246260;23;20012;-72
2022/11/09 09:08:38;;;;;;;13.85;2.40;;;;;;;;;;6219122;23;20047;-72
2022/11/09 09:11:05;;;;;;;13.88;3.10;;;;;;;;;;6219390;23;20012;-72
2022/11/09 09:13:31;;;;;;;11.18;2.67;;;;;;;;;;6219000;23;20098;-72
2022/11/09 09:15:58;;;;;;;15.55;2.78;;;;;;;;;;6218319;23;20047;-72
2022/11/09 09:18:24;;;;;;;13.68;3.00;;;;;;;;;;6217045;23;20107;-72
2022/11/09 09:20:50;;;;;;;17.00;3.15;;;;;;;;;;6218373;23;20342;-72
2022/11/09 09:23:17;;;;;;;12.77;2.42;;;;;;;;;;6218917;23;20016;-72
2022/11/09 09:25:43;;;;;;;15.55;3.47;;;;;;;;;;6216671;23;20020;-72
2022/11/09 09:28:09;;;;;;;7.70;2.25;;;;;;;;;;6243773;23;20098;-72
2022/11/09 09:30:35;;;;;;;14.30;3.03;;;;;;;;;;6217427;23;20012;-72
2022/11/09 09:33:01;;;;;;;14.55;3.05;;;;;;;;;;6192261;23;20024;-72
2022/11/09 09:35:28;;;;;;;14.38;2.67;;;;;;;;;;6217328;23;20016;-72
2022/11/09 09:37:56;;;;;;;14.32;2.78;;;;;;;;;;6218499;23;20008;-72
2022/11/09 09:40:29;;;;;;;11.05;2.47;;;;;;;;;;6218884;23;20016;-72
2022/11/09 09:42:56;;;;;;;12.98;2.28;;;;;;;;;;6218970;23;20040;-71
2022/11/09 09:45:24;;;;;;;15.63;3.00;;;;;;;;;;6219153;23;20356;-71
2022/11/09 09:47:53;;;;;;;13.23;2.70;;;;;;;;;;6219438;23;20340;-72
2022/11/09 09:50:21;;;;;;;13.48;4.05;;;;;;;;;;6218905;23;20039;-72
2022/11/09 09:52:53;;;;;;;15.65;3.25;;;;;;;;;;6219067;23;20058;-72
2022/11/09 09:55:22;;;;;;;16.30;3.03;;;;;;;;;;6219046;23;20012;-72
2022/11/09 09:57:53;;;;;;;13.30;3.13;;;;;;;;;;6219080;23;20016;-72
2022/11/09 10:00:23;;;;;;;14.35;2.88;;;;;;;;;;6218993;23;20016;-71
2022/11/09 10:02:51;;;;;;;18.45;3.10;;;;;;;;;;6218598;23;20070;-72
2022/11/09 10:05:18;;;;;;;15.38;2.92;;;;;;;;;;6218486;23;20406;-72
2022/11/09 10:08:06;;;;;;;18.50;3.58;;;;;;;;;;6218340;22;20091;-72
2022/11/09 10:10:45;;;;;;;21.70;3.30;;;;;;;;;;6218583;23;20020;-71
2022/11/09 10:13:30;;;;;;;17.83;3.55;;;;;;;;;;6218504;23;20018;-71
2022/11/09 10:16:14;;;;;;;18.77;3.42;;;;;;;;;;6218776;23;20393;-72
2022/11/09 10:18:40;;;;;;;15.18;3.47;;;;;;;;;;6218142;23;20023;-72
2022/11/09 10:21:11;;;;;;;18.35;3.22;;;;;;;;;;6218762;23;20013;-72
2022/11/09 10:23:49;;;;;;;14.15;3.58;;;;;;;;;;6218426;23;20020;-71
2022/11/09 10:26:22;;;;;;;11.90;3.75;;;;;;;;;;6217620;23;20015;-71
2022/11/09 10:28:51;;;;;;;18.08;3.35;;;;;;;;;;6217695;23;20019;-72
2022/11/09 10:31:19;;;;;;;8.32;3.13;;;;;;;;;;6220405;23;20134;-72
2022/11/09 10:33:48;;;;;;;16.58;4.07;;;;;;;;;;6219187;23;20082;-72
2022/11/09 10:36:32;;;;;;;17.02;5.15;;;;;;;;;;6218393;23;20012;-72
2022/11/09 10:39:00;;;;;;;11.75;4.00;;;;;;;;;;6218522;23;20023;-72
2022/11/09 10:41:32;;;;;;;15.23;4.25;;;;;;;;;;6218358;23;20470;-72
2022/11/09 10:43:59;;;;;;;13.43;4.28;;;;;;;;;;6218189;23;20081;-72
2022/11/09 10:46:25;;;;;;;15.52;4.75;;;;;;;;;;6218967;23;20090;-72
2022/11/09 10:48:52;;;;;;;13.73;4.45;;;;;;;;;;6218241;23;20439;-72
2022/11/09 10:51:27;;;;;;;13.95;3.78;;;;;;;;;;6218196;23;20027;-72
2022/11/09 10:54:12;;;;;;;13.00;5.75;;;;;;;;;;6218194;23;20043;-72
2022/11/09 10:56:44;;;;;;;17.85;4.65;;;;;;;;;;6218081;23;20027;-72
2022/11/09 10:59:28;;;;;;;18.67;4.70;;;;;;;;;;6218453;23;20016;-74
2022/11/09 11:01:54;;;;;;;13.00;4.30;;;;;;;;;;6220121;23;20449;-72
2022/11/09 11:04:23;;;;;;;12.15;4.38;;;;;;;;;;6220074;23;20020;-72
2022/11/09 11:06:49;;;;;;;16.70;4.93;;;;;;;;;;6220596;23;20050;-71
2022/11/09 11:09:19;;;;;;;20.45;5.03;;;;;;;;;;6221180;23;20023;-70
2022/11/09 11:11:46;;;;;;;14.73;4.47;;;;;;;;;;6220637;23;20035;-70
2022/11/09 11:14:14;;;;;;;15.15;4.90;;;;;;;;;;6220624;23;20342;-70
2022/11/09 11:16:41;;;;;;;13.82;4.15;;;;;;;;;;6220500;23;20339;-71
2022/11/09 11:19:25;;;;;;;15.18;4.80;;;;;;;;;;6219989;23;20023;-69
2022/11/09 11:22:11;;;;;;;15.45;4.20;;;13.40;99.90;;;;;;6220099;23;20442;-69
2022/11/09 11:24:52;;;;;;;13.38;4.68;;;;;;;;;;6199276;23;20012;-69
2022/11/09 11:27:29;;;;;;;15.25;5.00;;;;;;;;;;6246880;23;20022;-69
2022/11/09 11:30:01;;;;;;;13.13;4.15;;;;;;;;;;6246868;23;20087;-69
2022/11/09 11:32:27;;;;;;;17.30;5.18;;;;;;;;;;6219901;23;20460;-69
2022/11/09 11:34:53;;;;;;;18.85;5.28;;;;;;;;;;6219622;23;20012;-69
2022/11/09 11:37:43;;;;;;;16.00;4.65;;;;;;;;;;6219857;23;20012;-69
2022/11/09 11:40:18;;;;;;;17.58;4.90;;;;;;;;;;6219283;23;20461;-69
2022/11/09 11:42:50;;;;;;;17.85;5.15;;;;;;;;;;6247114;23;20016;-69
2022/11/09 11:45:22;;;;;;;20.42;5.38;;;;;;;;;;6245181;23;20462;-69
2022/11/09 11:47:57;;;;;;;13.63;5.32;;;;;;;;;;6219847;23;20016;-69
2022/11/09 11:50:38;;;;;;;13.57;5.00;;;;;;;;;;6246718;23;20098;-70
2022/11/09 11:53:08;;;;;;;15.43;5.10;;;;;;;;;;6247070;23;20008;-69
2022/11/09 11:55:46;;;;;;;18.80;5.43;;;;;;;;;;6245079;23;20012;-69
2022/11/09 11:58:12;;;;;;;16.13;4.97;;;;;;;;;;6219677;23;20012;-69
2022/11/09 12:00:43;;;;;;;20.95;4.93;;;;;;;;;;6219746;23;20020;-69
2022/11/09 12:03:13;;;;;;;15.07;4.80;;;;;;;;;;6219600;23;20018;-69
2022/11/09 12:05:46;;;;;;;13.85;4.57;;;;;;;;;;6246386;23;20011;-69
2022/11/09 12:08:18;;;;;;;11.60;4.57;;;;;;;;;;6246040;22;20357;-69
2022/11/09 12:11:02;;;;;;;11.63;5.22;;;;;;;;;;6219123;23;20020;-69
2022/11/09 12:13:29;;;;;;;10.85;3.90;;;;;;;;;;6199926;23;20496;-69
2022/11/09 12:16:06;;;;;;;12.40;4.20;;;;;;;;;;6184415;23;20021;-69
2022/11/09 12:18:35;;;;;;;12.52;3.60;;;;;;;;;;6184678;23;20338;-69
2022/11/09 12:21:04;;;;;;;9.23;3.38;;;;;;;;;;6186067;23;20017;-69
2022/11/09 12:23:42;;;;;;;3.50;2.25;;;;;;;;;;6184444;23;20024;-69
2022/11/09 12:26:13;;;;;;;8.52;2.58;;;;;;;;;;6185511;23;20013;-70
2022/11/09 12:28:50;;;;;;;7.60;2.53;;;;;;;;;;6186075;23;20088;-69
2022/11/09 12:31:19;;;;;;;7.20;2.45;;;;;;;;;;6159828;23;20013;-69
2022/11/09 12:33:54;;;;;;;3.45;1.70;;;;;;;;;;6184440;23;20320;-69
2022/11/09 12:36:20;;;;;;;4.38;1.40;;;;;;;;;;6184482;23;20028;-69
2022/11/09 12:39:06;;;;;;;4.28;1.60;;;;;;;;;;6159648;23;20120;-69
2022/11/09 12:41:34;;;;;;;4.38;1.60;;;;;;;;;;6159416;23;20071;-69
2022/11/09 12:44:10;;;;;;;3.60;1.52;;;;;;;;;;6185708;23;20013;-69
2022/11/09 12:46:40;;;;;;;3.30;1.10;;;;;;;;;;6184205;23;20364;-69
2022/11/09 12:49:10;;;;;;;3.00;1.40;;;;;;;;;;6183233;23;20024;-69
2022/11/09 12:51:37;;;;;;;5.00;1.70;;;;;;;;;;6185655;23;20032;-69
2022/11/09 12:54:08;;;;;;;3.70;2.20;;;;;;;;;;6186181;23;20048;-69
2022/11/09 12:56:40;;;;;;;3.72;1.30;;;;;;;;;;6186098;23;20017;-69
2022/11/09 12:59:19;;;;;;;3.53;1.47;;;;;;;;;;6185890;23;20033;-69
2022/11/09 13:01:47;;;;;;;7.05;1.58;;;;;;;;;;6159358;23;20276;-69
2022/11/09 13:04:17;;;;;;;5.60;1.10;;;;;;;;;;6185652;23;20395;-71
2022/11/09 13:07:03;;;;;;;4.68;1.45;;;;;;;;;;6185390;23;20013;-69
2022/11/09 13:09:29;;;;;;;7.28;1.58;;;;;;;;;;6183737;23;20048;-69
2022/11/09 13:11:56;;;;;;;8.85;1.77;;;;;;;;;;6184141;23;20104;-69
2022/11/09 13:14:22;;;;;;;10.85;3.58;;;;;;;;;;6235913;23;20016;-69
2022/11/09 13:16:55;;;;;;;5.85;2.40;;;;;;;;;;6246026;23;20087;-69
2022/11/09 13:19:33;;;;;;;8.02;3.05;;;;;;;;;;6219342;23;20024;-69
2022/11/09 13:22:22;;;;;;;7.28;2.90;;;;;;;;;;6218690;23;20070;-69
2022/11/09 13:24:48;;;;;;;8.18;2.83;;;;;;;;;;6217826;23;20100;-69
2022/11/09 13:27:33;;;;;;;6.82;2.45;;;;;;;;;;6245419;23;20022;-69
2022/11/09 13:29:59;;;;;;;7.07;2.22;;;;;;;;;;6218738;23;20016;-69
2022/11/09 13:32:27;;;;;;;4.97;2.65;;;;;;;;;;6218884;23;20494;-69
2022/11/09 13:34:59;;;;;;;8.68;2.67;;;;;;;;;;6245638;23;20016;-69
2022/11/09 13:37:41;;;;;;;12.93;2.75;;;;;;;;;;6218656;23;20023;-69
2022/11/09 13:40:27;;;;;;;9.35;2.90;;;;;;;;;;6244045;23;20469;-69
2022/11/09 13:43:04;;;;;;;9.45;2.92;;;;;;;;;;6224846;23;20046;-69
2022/11/09 13:45:35;;;;;;;11.88;3.10;;;;;;;;;;6218509;23;20024;-69
2022/11/09 13:48:02;;;;;;;10.35;2.83;;;;;;;;;;6218563;23;20012;-68
2022/11/09 13:50:29;;;;;;;14.38;3.55;;;;;;;;;;6218539;23;20023;-70
2022/11/09 13:52:57;;;;;;;10.38;3.33;;;;;;;;;;6245203;23;20113;-69
2022/11/09 13:55:25;;;;;;;12.68;3.42;;;;;;;;;;6218719;23;20081;-69
2022/11/09 13:57:52;;;;;;;13.10;3.20;;;;;;;;;;6245287;23;20012;-70
2022/11/09 14:00:22;;;;;;;6.75;2.33;;;;;;;;;;6243676;23;20016;-69
2022/11/09 14:03:20;;;;;;;8.75;2.92;;;;;;;;;;6245393;23;20008;-69
2022/11/09 14:05:48;;;;;;;9.63;2.40;;;;;;;;;;6179165;23;20342;-68
2022/11/09 14:08:20;;;;;;;10.90;2.72;;;;;;;;;;6245048;22;20565;-68
2022/11/09 14:11:07;;;;;;;14.63;4.57;;;;;;;;;;6245127;23;20020;-69
2022/11/09 14:14:30;;;;;;;6.40;3.00;;;12.70;99.90;;;;;;6244923;23;20023;-68
2022/11/09 14:16:56;;;;;;;;;;;;;;;;;;6123360;23;20010;-69
2022/11/09 14:19:26;;;;;;;9.40;2.60;;;;;;;;;;6123157;23;19919;-69
2022/11/09 14:21:53;;;;;;;6.35;2.30;;;;;;;;;;6158795;23;20109;-69
2022/11/09 14:24:19;;;;;;;7.40;2.85;;;;;;;;;;6218196;23;20150;-69
2022/11/09 14:27:11;;;;;;;8.90;2.22;;;;;;;;;;6218403;23;20094;-69
2022/11/09 14:29:46;;;;;;;11.25;3.40;;;;;;;;;;6218295;23;20023;-69
2022/11/09 14:32:34;;;;;;;8.40;1.75;;;;;;;;;;6245132;23;20012;-69
2022/11/09 14:35:18;;;;;;;6.72;1.70;;;;;;;;;;6218401;23;20450;-69
2022/11/09 14:37:45;;;;;;;8.40;2.20;;;;;;;;;;6218298;23;20054;-69
2022/11/09 14:40:26;;;;;;;6.97;2.28;;;;;;;;;;6245483;23;20342;-69
2022/11/09 14:42:58;;;;;;;7.20;2.42;;;;;;;;;;6244948;23;20372;-69
2022/11/09 14:45:24;;;;;;;9.45;3.53;;;;;;;;;;6245066;23;20075;-69
2022/11/09 14:47:52;;;;;;;8.40;2.80;;;;;;;;;;6218257;23;20012;-69